sensor_id;sensor_type;location;lat;lon;timestamp;temperature;humidity
80824;SHT35;70538;59.122;37.876;2023-08-20T00:00:22;16.32;74.85
80824;SHT35;70538;59.122;37.876;2023-08-20T00:03:03;16.26;75.20
80824;SHT35;70538;59.122;37.876;2023-08-20T00:05:32;16.20;75.31
80824;SHT35;70538;59.122;37.876;2023-08-20T00:07:59;16.10;75.64
80824;SHT35;70538;59.122;37.876;2023-08-20T00:10:27;16.05;75.89
80824;SHT35;70538;59.122;37.876;2023-08-20T00:12:55;16.01;76.01
80824;SHT35;70538;59.122;37.876;2023-08-20T00:15:23;15.97;76.15
80824;SHT35;70538;59.122;37.876;2023-08-20T00:17:54;15.90;76.36
80824;SHT35;70538;59.122;37.876;2023-08-20T00:20:23;15.87;76.46
80824;SHT35;70538;59.122;37.876;2023-08-20T00:22:51;15.78;76.56
80824;SHT35;70538;59.122;37.876;2023-08-20T00:25:19;15.68;76.68
80824;SHT35;70538;59.122;37.876;2023-08-20T00:27:47;15.65;76.81
80824;SHT35;70538;59.122;37.876;2023-08-20T00:30:15;15.64;76.88
80824;SHT35;70538;59.122;37.876;2023-08-20T00:32:43;15.61;76.96
80824;SHT35;70538;59.122;37.876;2023-08-20T00:35:11;15.64;76.90
80824;SHT35;70538;59.122;37.876;2023-08-20T00:37:39;15.58;76.91
80824;SHT35;70538;59.122;37.876;2023-08-20T00:40:08;15.55;77.06
80824;SHT35;70538;59.122;37.876;2023-08-20T00:42:37;15.51;77.20
80824;SHT35;70538;59.122;37.876;2023-08-20T00:45:05;15.47;77.30
80824;SHT35;70538;59.122;37.876;2023-08-20T00:47:34;15.46;77.42
80824;SHT35;70538;59.122;37.876;2023-08-20T00:50:04;15.47;77.43
80824;SHT35;70538;59.122;37.876;2023-08-20T00:52:36;15.47;77.39
80824;SHT35;70538;59.122;37.876;2023-08-20T00:55:08;15.50;77.34
80824;SHT35;70538;59.122;37.876;2023-08-20T00:57:37;15.46;77.33
80824;SHT35;70538;59.122;37.876;2023-08-20T01:00:07;15.40;77.46
80824;SHT35;70538;59.122;37.876;2023-08-20T01:02:38;15.39;77.52
80824;SHT35;70538;59.122;37.876;2023-08-20T01:05:08;15.39;77.59
80824;SHT35;70538;59.122;37.876;2023-08-20T01:08:19;15.44;77.62
80824;SHT35;70538;59.122;37.876;2023-08-20T01:10:57;15.44;77.34
80824;SHT35;70538;59.122;37.876;2023-08-20T01:13:26;15.47;77.31
80824;SHT35;70538;59.122;37.876;2023-08-20T01:15:54;15.53;77.40
80824;SHT35;70538;59.122;37.876;2023-08-20T01:18:23;15.54;77.38
80824;SHT35;70538;59.122;37.876;2023-08-20T01:20:56;15.60;77.32
80824;SHT35;70538;59.122;37.876;2023-08-20T01:29:06;15.68;77.19
80824;SHT35;70538;59.122;37.876;2023-08-20T01:31:35;15.71;77.14
80824;SHT35;70538;59.122;37.876;2023-08-20T01:34:03;15.73;77.06
80824;SHT35;70538;59.122;37.876;2023-08-20T01:36:31;15.74;77.11
80824;SHT35;70538;59.122;37.876;2023-08-20T01:38:59;15.73;77.20
80824;SHT35;70538;59.122;37.876;2023-08-20T01:41:27;15.74;77.15
80824;SHT35;70538;59.122;37.876;2023-08-20T01:43:55;15.74;77.11
80824;SHT35;70538;59.122;37.876;2023-08-20T01:46:23;15.74;77.18
80824;SHT35;70538;59.122;37.876;2023-08-20T01:48:51;15.74;77.25
80824;SHT35;70538;59.122;37.876;2023-08-20T01:51:23;15.78;77.22
80824;SHT35;70538;59.122;37.876;2023-08-20T01:53:51;15.80;77.14
80824;SHT35;70538;59.122;37.876;2023-08-20T01:56:19;15.84;77.05
80824;SHT35;70538;59.122;37.876;2023-08-20T01:58:47;15.81;77.01
80824;SHT35;70538;59.122;37.876;2023-08-20T02:01:15;15.85;77.21
80824;SHT35;70538;59.122;37.876;2023-08-20T02:03:43;15.87;77.04
80824;SHT35;70538;59.122;37.876;2023-08-20T02:06:11;15.88;77.01
80824;SHT35;70538;59.122;37.876;2023-08-20T02:08:38;15.91;77.07
80824;SHT35;70538;59.122;37.876;2023-08-20T02:11:06;15.87;77.10
80824;SHT35;70538;59.122;37.876;2023-08-20T02:13:34;15.87;77.13
80824;SHT35;70538;59.122;37.876;2023-08-20T02:16:04;15.81;77.38
80824;SHT35;70538;59.122;37.876;2023-08-20T02:18:52;15.78;77.54
80824;SHT35;70538;59.122;37.876;2023-08-20T02:21:20;15.78;77.63
80824;SHT35;70538;59.122;37.876;2023-08-20T02:23:48;15.75;77.71
80824;SHT35;70538;59.122;37.876;2023-08-20T02:26:17;15.74;77.79
80824;SHT35;70538;59.122;37.876;2023-08-20T02:28:45;15.80;77.84
80824;SHT35;70538;59.122;37.876;2023-08-20T02:31:12;15.78;77.85
80824;SHT35;70538;59.122;37.876;2023-08-20T02:33:41;15.81;77.79
80824;SHT35;70538;59.122;37.876;2023-08-20T02:36:08;15.81;77.71
80824;SHT35;70538;59.122;37.876;2023-08-20T02:38:36;15.78;77.73
80824;SHT35;70538;59.122;37.876;2023-08-20T02:41:05;15.74;77.85
80824;SHT35;70538;59.122;37.876;2023-08-20T02:43:33;15.70;78.03
80824;SHT35;70538;59.122;37.876;2023-08-20T02:46:02;15.68;78.01
80824;SHT35;70538;59.122;37.876;2023-08-20T02:48:30;15.67;78.01
80824;SHT35;70538;59.122;37.876;2023-08-20T02:50:58;15.64;78.05
80824;SHT35;70538;59.122;37.876;2023-08-20T02:53:26;15.64;78.09
80824;SHT35;70538;59.122;37.876;2023-08-20T02:55:54;15.63;78.17
80824;SHT35;70538;59.122;37.876;2023-08-20T02:58:22;15.60;78.24
80824;SHT35;70538;59.122;37.876;2023-08-20T03:00:50;15.58;78.39
80824;SHT35;70538;59.122;37.876;2023-08-20T03:03:18;15.54;78.57
80824;SHT35;70538;59.122;37.876;2023-08-20T03:05:46;15.55;78.57
80824;SHT35;70538;59.122;37.876;2023-08-20T03:08:15;15.55;78.66
80824;SHT35;70538;59.122;37.876;2023-08-20T03:10:43;15.61;78.68
80824;SHT35;70538;59.122;37.876;2023-08-20T03:13:10;15.65;78.54
80824;SHT35;70538;59.122;37.876;2023-08-20T03:15:39;15.70;78.38
80824;SHT35;70538;59.122;37.876;2023-08-20T03:18:07;15.67;78.28
80824;SHT35;70538;59.122;37.876;2023-08-20T03:20:37;15.68;78.18
80824;SHT35;70538;59.122;37.876;2023-08-20T03:23:05;15.68;78.19
80824;SHT35;70538;59.122;37.876;2023-08-20T03:25:33;15.71;78.09
80824;SHT35;70538;59.122;37.876;2023-08-20T03:28:02;15.74;78.08
80824;SHT35;70538;59.122;37.876;2023-08-20T03:30:30;15.80;77.92
80824;SHT35;70538;59.122;37.876;2023-08-20T03:32:58;15.81;77.73
80824;SHT35;70538;59.122;37.876;2023-08-20T03:35:26;15.87;77.56
80824;SHT35;70538;59.122;37.876;2023-08-20T03:37:54;15.97;77.43
80824;SHT35;70538;59.122;37.876;2023-08-20T03:40:22;16.05;77.09
80824;SHT35;70538;59.122;37.876;2023-08-20T03:42:50;16.09;76.75
80824;SHT35;70538;59.122;37.876;2023-08-20T03:45:18;16.05;76.79
80824;SHT35;70538;59.122;37.876;2023-08-20T03:47:46;16.01;76.88
80824;SHT35;70538;59.122;37.876;2023-08-20T03:50:15;16.04;76.79
80824;SHT35;70538;59.122;37.876;2023-08-20T03:52:44;16.04;76.63
80824;SHT35;70538;59.122;37.876;2023-08-20T03:55:12;16.06;76.73
80824;SHT35;70538;59.122;37.876;2023-08-20T03:57:40;16.01;76.85
80824;SHT35;70538;59.122;37.876;2023-08-20T04:00:09;15.99;76.93
80824;SHT35;70538;59.122;37.876;2023-08-20T04:02:37;15.98;76.98
80824;SHT35;70538;59.122;37.876;2023-08-20T04:05:06;15.99;76.90
80824;SHT35;70538;59.122;37.876;2023-08-20T04:07:35;15.99;76.97
80824;SHT35;70538;59.122;37.876;2023-08-20T04:10:04;16.01;76.92
80824;SHT35;70538;59.122;37.876;2023-08-20T04:12:33;15.99;76.87
80824;SHT35;70538;59.122;37.876;2023-08-20T04:15:00;15.97;76.75
80824;SHT35;70538;59.122;37.876;2023-08-20T04:17:32;15.97;76.84
80824;SHT35;70538;59.122;37.876;2023-08-20T04:20:00;15.99;76.74
80824;SHT35;70538;59.122;37.876;2023-08-20T04:22:30;16.01;76.70
80824;SHT35;70538;59.122;37.876;2023-08-20T04:24:59;16.06;76.70
80824;SHT35;70538;59.122;37.876;2023-08-20T04:27:30;16.08;76.60
80824;SHT35;70538;59.122;37.876;2023-08-20T04:29:58;16.12;76.56
80824;SHT35;70538;59.122;37.876;2023-08-20T04:32:26;16.18;76.57
80824;SHT35;70538;59.122;37.876;2023-08-20T04:34:57;16.23;76.42
80824;SHT35;70538;59.122;37.876;2023-08-20T04:37:25;16.29;76.30
80824;SHT35;70538;59.122;37.876;2023-08-20T04:39:52;16.36;76.15
80824;SHT35;70538;59.122;37.876;2023-08-20T04:42:20;16.39;75.97
80824;SHT35;70538;59.122;37.876;2023-08-20T04:44:48;16.45;75.88
80824;SHT35;70538;59.122;37.876;2023-08-20T04:47:16;16.47;75.59
80824;SHT35;70538;59.122;37.876;2023-08-20T04:49:43;16.49;75.39
80824;SHT35;70538;59.122;37.876;2023-08-20T04:52:12;16.50;75.10
80824;SHT35;70538;59.122;37.876;2023-08-20T04:54:39;16.47;75.09
80824;SHT35;70538;59.122;37.876;2023-08-20T04:57:07;16.49;74.93
80824;SHT35;70538;59.122;37.876;2023-08-20T04:59:35;16.46;74.72
80824;SHT35;70538;59.122;37.876;2023-08-20T05:02:03;16.42;74.60
80824;SHT35;70538;59.122;37.876;2023-08-20T05:04:33;16.43;74.58
80824;SHT35;70538;59.122;37.876;2023-08-20T05:07:00;16.50;74.48
80824;SHT35;70538;59.122;37.876;2023-08-20T05:09:28;16.52;74.24
80824;SHT35;70538;59.122;37.876;2023-08-20T05:11:56;16.56;74.19
80824;SHT35;70538;59.122;37.876;2023-08-20T05:14:24;16.63;74.27
80824;SHT35;70538;59.122;37.876;2023-08-20T05:16:58;16.73;74.03
80824;SHT35;70538;59.122;37.876;2023-08-20T05:19:26;16.80;73.62
80824;SHT35;70538;59.122;37.876;2023-08-20T05:21:54;16.87;73.37
80824;SHT35;70538;59.122;37.876;2023-08-20T05:24:26;16.96;72.73
80824;SHT35;70538;59.122;37.876;2023-08-20T05:27:07;17.02;72.26
80824;SHT35;70538;59.122;37.876;2023-08-20T05:29:36;17.09;71.93
80824;SHT35;70538;59.122;37.876;2023-08-20T05:32:05;17.18;71.64
80824;SHT35;70538;59.122;37.876;2023-08-20T05:34:32;17.23;71.40
80824;SHT35;70538;59.122;37.876;2023-08-20T05:37:00;17.25;71.20
80824;SHT35;70538;59.122;37.876;2023-08-20T05:39:30;17.30;71.10
80824;SHT35;70538;59.122;37.876;2023-08-20T05:41:57;17.39;70.99
80824;SHT35;70538;59.122;37.876;2023-08-20T05:44:25;17.43;70.82
80824;SHT35;70538;59.122;37.876;2023-08-20T05:46:53;17.50;70.48
80824;SHT35;70538;59.122;37.876;2023-08-20T05:49:21;17.57;70.22
80824;SHT35;70538;59.122;37.876;2023-08-20T05:51:49;17.63;70.00
80824;SHT35;70538;59.122;37.876;2023-08-20T05:54:16;17.66;69.95
80824;SHT35;70538;59.122;37.876;2023-08-20T05:56:44;17.69;69.86
80824;SHT35;70538;59.122;37.876;2023-08-20T05:59:12;17.73;69.70
80824;SHT35;70538;59.122;37.876;2023-08-20T06:01:40;17.71;69.54
80824;SHT35;70538;59.122;37.876;2023-08-20T06:04:08;17.71;69.48
80824;SHT35;70538;59.122;37.876;2023-08-20T06:06:36;17.74;69.49
80824;SHT35;70538;59.122;37.876;2023-08-20T06:09:05;17.81;69.31
80824;SHT35;70538;59.122;37.876;2023-08-20T06:11:36;17.92;69.28
80824;SHT35;70538;59.122;37.876;2023-08-20T06:14:06;18.02;69.19
80824;SHT35;70538;59.122;37.876;2023-08-20T06:16:33;18.13;68.90
80824;SHT35;70538;59.122;37.876;2023-08-20T06:19:01;18.22;68.71
80824;SHT35;70538;59.122;37.876;2023-08-20T06:21:31;18.32;68.31
80824;SHT35;70538;59.122;37.876;2023-08-20T06:24:00;18.49;67.73
80824;SHT35;70538;59.122;37.876;2023-08-20T06:26:28;18.64;67.24
80824;SHT35;70538;59.122;37.876;2023-08-20T06:28:56;18.74;66.49
80824;SHT35;70538;59.122;37.876;2023-08-20T06:31:24;18.77;65.73
80824;SHT35;70538;59.122;37.876;2023-08-20T06:33:52;18.76;65.14
80824;SHT35;70538;59.122;37.876;2023-08-20T06:36:19;18.84;64.79
80824;SHT35;70538;59.122;37.876;2023-08-20T06:38:47;18.93;64.38
80824;SHT35;70538;59.122;37.876;2023-08-20T06:41:14;19.10;63.81
80824;SHT35;70538;59.122;37.876;2023-08-20T06:43:43;19.26;63.34
80824;SHT35;70538;59.122;37.876;2023-08-20T06:46:11;19.45;62.89
80824;SHT35;70538;59.122;37.876;2023-08-20T06:48:38;19.59;62.42
80824;SHT35;70538;59.122;37.876;2023-08-20T06:51:13;19.74;62.22
80824;SHT35;70538;59.122;37.876;2023-08-20T06:53:41;19.90;61.58
80824;SHT35;70538;59.122;37.876;2023-08-20T06:56:10;19.87;61.22
80824;SHT35;70538;59.122;37.876;2023-08-20T06:58:39;19.90;61.02
80824;SHT35;70538;59.122;37.876;2023-08-20T07:01:08;19.88;60.68
80824;SHT35;70538;59.122;37.876;2023-08-20T07:03:40;19.83;60.06
80824;SHT35;70538;59.122;37.876;2023-08-20T07:06:10;19.77;59.84
80824;SHT35;70538;59.122;37.876;2023-08-20T07:08:38;19.76;59.82
80824;SHT35;70538;59.122;37.876;2023-08-20T07:11:07;19.76;59.90
80824;SHT35;70538;59.122;37.876;2023-08-20T07:13:36;19.78;59.91
80824;SHT35;70538;59.122;37.876;2023-08-20T07:16:05;19.87;59.69
80824;SHT35;70538;59.122;37.876;2023-08-20T07:18:33;19.91;59.43
80824;SHT35;70538;59.122;37.876;2023-08-20T07:21:01;19.97;59.03
80824;SHT35;70538;59.122;37.876;2023-08-20T07:23:29;19.97;58.71
80824;SHT35;70538;59.122;37.876;2023-08-20T07:26:10;19.91;58.11
80824;SHT35;70538;59.122;37.876;2023-08-20T07:28:40;19.86;58.04
80824;SHT35;70538;59.122;37.876;2023-08-20T07:31:29;19.93;57.96
80824;SHT35;70538;59.122;37.876;2023-08-20T07:34:01;20.00;57.86
80824;SHT35;70538;59.122;37.876;2023-08-20T07:36:33;20.05;57.69
80824;SHT35;70538;59.122;37.876;2023-08-20T07:39:01;20.11;57.40
80824;SHT35;70538;59.122;37.876;2023-08-20T07:41:30;20.22;57.11
80824;SHT35;70538;59.122;37.876;2023-08-20T07:43:58;20.40;56.96
80824;SHT35;70538;59.122;37.876;2023-08-20T07:46:26;20.60;56.78
80824;SHT35;70538;59.122;37.876;2023-08-20T07:48:54;20.83;56.30
80824;SHT35;70538;59.122;37.876;2023-08-20T07:51:22;21.01;55.88
80824;SHT35;70538;59.122;37.876;2023-08-20T07:53:50;21.17;55.53
80824;SHT35;70538;59.122;37.876;2023-08-20T07:56:18;21.34;54.79
80824;SHT35;70538;59.122;37.876;2023-08-20T07:58:46;21.50;54.28
80824;SHT35;70538;59.122;37.876;2023-08-20T08:01:15;21.72;53.69
80824;SHT35;70538;59.122;37.876;2023-08-20T08:03:44;21.94;53.38
80824;SHT35;70538;59.122;37.876;2023-08-20T08:06:12;22.00;53.13
80824;SHT35;70538;59.122;37.876;2023-08-20T08:08:42;21.89;52.78
80824;SHT35;70538;59.122;37.876;2023-08-20T08:11:12;21.70;52.83
80824;SHT35;70538;59.122;37.876;2023-08-20T08:13:41;21.56;53.03
80824;SHT35;70538;59.122;37.876;2023-08-20T08:16:09;21.53;52.90
80824;SHT35;70538;59.122;37.876;2023-08-20T08:18:37;21.56;52.74
80824;SHT35;70538;59.122;37.876;2023-08-20T08:21:05;21.60;52.52
80824;SHT35;70538;59.122;37.876;2023-08-20T08:23:33;21.69;52.31
80824;SHT35;70538;59.122;37.876;2023-08-20T08:26:00;21.85;52.29
80824;SHT35;70538;59.122;37.876;2023-08-20T08:28:28;21.93;52.35
80824;SHT35;70538;59.122;37.876;2023-08-20T08:30:56;22.00;52.15
80824;SHT35;70538;59.122;37.876;2023-08-20T08:33:25;22.18;51.80
80824;SHT35;70538;59.122;37.876;2023-08-20T08:35:53;22.25;51.25
80824;SHT35;70538;59.122;37.876;2023-08-20T08:38:21;22.21;51.31
80824;SHT35;70538;59.122;37.876;2023-08-20T08:40:52;22.24;51.33
80824;SHT35;70538;59.122;37.876;2023-08-20T08:43:20;22.47;50.65
80824;SHT35;70538;59.122;37.876;2023-08-20T08:45:48;22.72;49.43
80824;SHT35;70538;59.122;37.876;2023-08-20T08:48:18;23.04;49.04
80824;SHT35;70538;59.122;37.876;2023-08-20T08:50:48;23.30;48.07
80824;SHT35;70538;59.122;37.876;2023-08-20T08:53:17;23.59;47.42
80824;SHT35;70538;59.122;37.876;2023-08-20T08:55:45;23.80;46.96
80824;SHT35;70538;59.122;37.876;2023-08-20T08:58:15;23.86;46.57
80824;SHT35;70538;59.122;37.876;2023-08-20T09:00:42;23.72;45.96
80824;SHT35;70538;59.122;37.876;2023-08-20T09:03:10;23.44;45.60
80824;SHT35;70538;59.122;37.876;2023-08-20T09:05:48;23.18;45.31
80824;SHT35;70538;59.122;37.876;2023-08-20T09:08:20;23.00;45.78
80824;SHT35;70538;59.122;37.876;2023-08-20T09:10:52;23.02;46.36
80824;SHT35;70538;59.122;37.876;2023-08-20T09:13:37;23.13;46.10
80824;SHT35;70538;59.122;37.876;2023-08-20T09:16:10;23.25;45.38
80824;SHT35;70538;59.122;37.876;2023-08-20T09:18:42;23.62;44.96
80824;SHT35;70538;59.122;37.876;2023-08-20T09:21:13;23.86;44.78
80824;SHT35;70538;59.122;37.876;2023-08-20T09:23:46;24.16;44.41
80824;SHT35;70538;59.122;37.876;2023-08-20T09:26:14;24.20;44.00
80824;SHT35;70538;59.122;37.876;2023-08-20T09:28:45;23.92;44.01
80824;SHT35;70538;59.122;37.876;2023-08-20T09:31:14;23.57;44.14
80824;SHT35;70538;59.122;37.876;2023-08-20T09:36:17;23.76;44.46
80824;SHT35;70538;59.122;37.876;2023-08-20T09:38:45;24.25;43.26
80824;SHT35;70538;59.122;37.876;2023-08-20T09:41:17;24.83;41.84
80824;SHT35;70538;59.122;37.876;2023-08-20T09:43:46;25.26;40.45
80824;SHT35;70538;59.122;37.876;2023-08-20T09:46:16;25.43;40.28
80824;SHT35;70538;59.122;37.876;2023-08-20T09:48:48;25.34;40.57
80824;SHT35;70538;59.122;37.876;2023-08-20T09:51:26;25.10;40.82
80824;SHT35;70538;59.122;37.876;2023-08-20T09:54:02;24.78;41.44
80824;SHT35;70538;59.122;37.876;2023-08-20T09:56:37;24.79;41.20
80824;SHT35;70538;59.122;37.876;2023-08-20T09:59:06;24.99;41.57
80824;SHT35;70538;59.122;37.876;2023-08-20T10:01:35;25.24;41.21
80824;SHT35;70538;59.122;37.876;2023-08-20T10:04:04;25.28;40.86
80824;SHT35;70538;59.122;37.876;2023-08-20T10:06:33;25.06;40.62
80824;SHT35;70538;59.122;37.876;2023-08-20T10:09:03;24.80;40.93
80824;SHT35;70538;59.122;37.876;2023-08-20T10:11:32;24.89;41.22
80824;SHT35;70538;59.122;37.876;2023-08-20T10:14:00;25.30;40.45
80824;SHT35;70538;59.122;37.876;2023-08-20T10:16:28;25.98;39.30
80824;SHT35;70538;59.122;37.876;2023-08-20T10:19:02;26.81;37.80
80824;SHT35;70538;59.122;37.876;2023-08-20T10:21:30;27.67;36.32
80824;SHT35;70538;59.122;37.876;2023-08-20T10:24:06;28.33;35.09
80824;SHT35;70538;59.122;37.876;2023-08-20T10:26:34;28.60;34.87
80824;SHT35;70538;59.122;37.876;2023-08-20T10:29:39;28.63;34.03
80824;SHT35;70538;59.122;37.876;2023-08-20T10:32:12;27.95;34.36
80824;SHT35;70538;59.122;37.876;2023-08-20T10:34:44;27.19;35.43
80824;SHT35;70538;59.122;37.876;2023-08-20T10:37:26;27.06;35.82
80824;SHT35;70538;59.122;37.876;2023-08-20T10:39:58;27.50;35.78
80824;SHT35;70538;59.122;37.876;2023-08-20T10:42:27;28.15;34.64
80824;SHT35;70538;59.122;37.876;2023-08-20T10:45:08;28.74;33.83
80824;SHT35;70538;59.122;37.876;2023-08-20T10:47:44;29.16;32.73
80824;SHT35;70538;59.122;37.876;2023-08-20T10:50:15;29.40;31.97
80824;SHT35;70538;59.122;37.876;2023-08-20T10:52:55;29.04;32.48
80824;SHT35;70538;59.122;37.876;2023-08-20T10:55:24;28.31;33.23
80824;SHT35;70538;59.122;37.876;2023-08-20T10:57:58;27.55;34.22
80824;SHT35;70538;59.122;37.876;2023-08-20T11:00:27;27.44;35.28
80824;SHT35;70538;59.122;37.876;2023-08-20T11:02:57;27.92;34.52
80824;SHT35;70538;59.122;37.876;2023-08-20T11:05:26;28.60;33.72
80824;SHT35;70538;59.122;37.876;2023-08-20T11:07:54;29.36;32.24
80824;SHT35;70538;59.122;37.876;2023-08-20T11:10:23;30.08;30.83
80824;SHT35;70538;59.122;37.876;2023-08-20T11:12:51;30.63;29.88
80824;SHT35;70538;59.122;37.876;2023-08-20T11:15:19;30.74;29.69
80824;SHT35;70538;59.122;37.876;2023-08-20T11:17:49;30.53;30.21
80824;SHT35;70538;59.122;37.876;2023-08-20T11:20:18;30.25;30.37
80824;SHT35;70538;59.122;37.876;2023-08-20T11:22:47;29.98;30.88
80824;SHT35;70538;59.122;37.876;2023-08-20T11:25:15;29.90;31.58
80824;SHT35;70538;59.122;37.876;2023-08-20T11:27:43;30.22;31.04
80824;SHT35;70538;59.122;37.876;2023-08-20T11:30:11;30.47;30.76
80824;SHT35;70538;59.122;37.876;2023-08-20T11:32:41;31.00;30.04
80824;SHT35;70538;59.122;37.876;2023-08-20T11:35:11;31.61;28.99
80824;SHT35;70538;59.122;37.876;2023-08-20T11:37:40;31.77;28.30
80824;SHT35;70538;59.122;37.876;2023-08-20T11:40:08;31.80;27.66
80824;SHT35;70538;59.122;37.876;2023-08-20T11:42:36;31.90;27.20
80824;SHT35;70538;59.122;37.876;2023-08-20T11:45:05;31.97;27.21
80824;SHT35;70538;59.122;37.876;2023-08-20T11:47:40;32.55;26.71
80824;SHT35;70538;59.122;37.876;2023-08-20T11:50:09;32.91;26.43
80824;SHT35;70538;59.122;37.876;2023-08-20T11:52:38;32.63;26.54
80824;SHT35;70538;59.122;37.876;2023-08-20T11:55:09;31.82;27.24
80824;SHT35;70538;59.122;37.876;2023-08-20T11:57:37;30.91;27.96
80824;SHT35;70538;59.122;37.876;2023-08-20T12:00:08;30.17;28.87
80824;SHT35;70538;59.122;37.876;2023-08-20T12:02:44;30.18;29.41
80824;SHT35;70538;59.122;37.876;2023-08-20T12:05:12;30.36;29.17
80824;SHT35;70538;59.122;37.876;2023-08-20T12:07:40;30.83;28.89
80824;SHT35;70538;59.122;37.876;2023-08-20T12:10:21;31.58;27.96
80824;SHT35;70538;59.122;37.876;2023-08-20T12:12:50;32.32;27.04
80824;SHT35;70538;59.122;37.876;2023-08-20T12:15:18;32.62;26.42
80824;SHT35;70538;59.122;37.876;2023-08-20T12:20:28;32.06;26.50
80824;SHT35;70538;59.122;37.876;2023-08-20T12:22:58;31.24;27.08
80824;SHT35;70538;59.122;37.876;2023-08-20T12:25:29;30.52;28.13
80824;SHT35;70538;59.122;37.876;2023-08-20T12:27:57;30.55;28.27
80824;SHT35;70538;59.122;37.876;2023-08-20T12:30:24;31.07;27.85
80824;SHT35;70538;59.122;37.876;2023-08-20T12:32:52;31.63;27.49
80824;SHT35;70538;59.122;37.876;2023-08-20T12:35:20;32.20;26.46
80824;SHT35;70538;59.122;37.876;2023-08-20T12:37:48;32.18;26.12
80824;SHT35;70538;59.122;37.876;2023-08-20T12:40:16;32.34;26.15
80824;SHT35;70538;59.122;37.876;2023-08-20T12:42:43;32.55;25.79
80824;SHT35;70538;59.122;37.876;2023-08-20T12:45:11;32.44;25.54
80824;SHT35;70538;59.122;37.876;2023-08-20T12:47:41;32.23;26.06
80824;SHT35;70538;59.122;37.876;2023-08-20T12:50:10;32.11;26.02
80824;SHT35;70538;59.122;37.876;2023-08-20T12:52:38;32.21;26.35
80824;SHT35;70538;59.122;37.876;2023-08-20T12:55:06;32.78;26.48
80824;SHT35;70538;59.122;37.876;2023-08-20T12:57:35;33.18;25.60
80824;SHT35;70538;59.122;37.876;2023-08-20T13:00:06;33.55;24.72
80824;SHT35;70538;59.122;37.876;2023-08-20T13:02:38;33.65;24.52
80824;SHT35;70538;59.122;37.876;2023-08-20T13:05:07;33.33;24.42
80824;SHT35;70538;59.122;37.876;2023-08-20T13:07:36;32.56;24.72
80824;SHT35;70538;59.122;37.876;2023-08-20T13:10:05;31.59;25.75
80824;SHT35;70538;59.122;37.876;2023-08-20T13:12:33;30.79;26.57
80824;SHT35;70538;59.122;37.876;2023-08-20T13:15:02;30.01;27.43
80824;SHT35;70538;59.122;37.876;2023-08-20T13:17:31;29.27;28.28
80824;SHT35;70538;59.122;37.876;2023-08-20T13:19:59;28.82;29.01
80824;SHT35;70538;59.122;37.876;2023-08-20T13:22:30;28.52;29.42
80824;SHT35;70538;59.122;37.876;2023-08-20T13:24:57;28.10;29.86
80824;SHT35;70538;59.122;37.876;2023-08-20T13:27:26;27.99;30.46
80824;SHT35;70538;59.122;37.876;2023-08-20T13:29:54;28.49;30.33
80824;SHT35;70538;59.122;37.876;2023-08-20T13:32:22;29.32;29.38
80824;SHT35;70538;59.122;37.876;2023-08-20T13:34:50;30.24;28.36
80824;SHT35;70538;59.122;37.876;2023-08-20T13:37:18;31.10;27.33
80824;SHT35;70538;59.122;37.876;2023-08-20T13:39:45;31.79;26.28
80824;SHT35;70538;59.122;37.876;2023-08-20T13:42:13;32.10;25.70
80824;SHT35;70538;59.122;37.876;2023-08-20T13:44:41;32.00;25.69
80824;SHT35;70538;59.122;37.876;2023-08-20T13:47:09;31.52;26.26
80824;SHT35;70538;59.122;37.876;2023-08-20T13:49:36;31.67;26.67
80824;SHT35;70538;59.122;37.876;2023-08-20T13:52:04;32.16;26.28
80824;SHT35;70538;59.122;37.876;2023-08-20T13:54:33;31.84;26.01
80824;SHT35;70538;59.122;37.876;2023-08-20T13:57:01;31.49;26.35
80824;SHT35;70538;59.122;37.876;2023-08-20T13:59:29;31.61;26.43
80824;SHT35;70538;59.122;37.876;2023-08-20T14:01:58;32.06;26.31
80824;SHT35;70538;59.122;37.876;2023-08-20T14:04:26;32.52;25.76
80824;SHT35;70538;59.122;37.876;2023-08-20T14:06:53;32.23;25.69
80824;SHT35;70538;59.122;37.876;2023-08-20T14:09:21;31.43;26.14
80824;SHT35;70538;59.122;37.876;2023-08-20T14:11:49;30.55;27.00
80824;SHT35;70538;59.122;37.876;2023-08-20T14:14:17;29.77;27.87
80824;SHT35;70538;59.122;37.876;2023-08-20T14:16:46;29.45;28.52
80824;SHT35;70538;59.122;37.876;2023-08-20T14:19:13;29.62;28.70
80824;SHT35;70538;59.122;37.876;2023-08-20T14:21:41;30.15;28.31
80824;SHT35;70538;59.122;37.876;2023-08-20T14:24:09;30.31;28.06
80824;SHT35;70538;59.122;37.876;2023-08-20T14:26:36;29.98;28.25
80824;SHT35;70538;59.122;37.876;2023-08-20T14:29:04;29.74;28.26
80824;SHT35;70538;59.122;37.876;2023-08-20T14:31:32;29.39;28.39
80824;SHT35;70538;59.122;37.876;2023-08-20T14:34:00;29.29;28.23
80824;SHT35;70538;59.122;37.876;2023-08-20T14:36:28;28.99;28.30
80824;SHT35;70538;59.122;37.876;2023-08-20T14:38:55;28.47;28.78
80824;SHT35;70538;59.122;37.876;2023-08-20T14:41:23;28.06;29.40
80824;SHT35;70538;59.122;37.876;2023-08-20T14:43:52;27.89;30.00
80824;SHT35;70538;59.122;37.876;2023-08-20T14:46:24;27.70;30.09
80824;SHT35;70538;59.122;37.876;2023-08-20T14:48:54;27.37;30.30
80824;SHT35;70538;59.122;37.876;2023-08-20T14:51:22;27.22;30.85
80824;SHT35;70538;59.122;37.876;2023-08-20T14:53:50;27.63;30.97
80824;SHT35;70538;59.122;37.876;2023-08-20T14:56:18;28.31;30.23
80824;SHT35;70538;59.122;37.876;2023-08-20T14:58:45;28.94;29.76
80824;SHT35;70538;59.122;37.876;2023-08-20T15:01:14;29.49;29.20
80824;SHT35;70538;59.122;37.876;2023-08-20T15:03:42;29.82;28.80
80824;SHT35;70538;59.122;37.876;2023-08-20T15:06:10;30.12;28.42
80824;SHT35;70538;59.122;37.876;2023-08-20T15:08:38;30.36;28.21
80824;SHT35;70538;59.122;37.876;2023-08-20T15:11:06;30.36;27.91
80824;SHT35;70538;59.122;37.876;2023-08-20T15:13:34;30.09;28.26
80824;SHT35;70538;59.122;37.876;2023-08-20T15:16:02;30.18;28.21
80824;SHT35;70538;59.122;37.876;2023-08-20T15:18:31;30.22;28.04
80824;SHT35;70538;59.122;37.876;2023-08-20T15:21:00;30.25;28.23
80824;SHT35;70538;59.122;37.876;2023-08-20T15:23:28;30.35;28.24
80824;SHT35;70538;59.122;37.876;2023-08-20T15:25:59;30.49;27.87
80824;SHT35;70538;59.122;37.876;2023-08-20T15:28:27;30.59;27.85
80824;SHT35;70538;59.122;37.876;2023-08-20T15:30:58;30.73;27.82
80824;SHT35;70538;59.122;37.876;2023-08-20T15:33:26;30.84;27.36
80824;SHT35;70538;59.122;37.876;2023-08-20T15:35:54;30.86;27.26
80824;SHT35;70538;59.122;37.876;2023-08-20T15:38:22;31.02;27.05